Saturday, July 21, 2018, 3:22 AM EDT
Back to Local

KOXB, Ocean City Municipal Airport

Location: Berlin, MD, United States Lat: 38.317
Local Time: 3:22 AM EDT ( 7:22 GMT) Lon: -75.117
Time Zone: US/Eastern Elev: 13 ft

Show me the last for .
Show Decoded

2018-07-21 02:53 METAR KOXB 210653Z AUTO 12007KT 10SM CLR 23/20 A3003 RMK AO2 SLP167 T02330200 =
2018-07-21 01:53 METAR KOXB 210553Z AUTO 13008KT 10SM CLR 23/19 A3004 RMK AO2 SLP173 T02330194
                 10239 20228 56013 =
2018-07-21 00:53 METAR KOXB 210453Z AUTO 13012G16KT 10SM CLR 24/19 A3005 RMK AO2 SLP174 T02390189
                 402720150 =
2018-07-20 23:53 METAR KOXB 210353Z AUTO 13008KT 10SM FEW042 23/19 A3006 RMK AO2 SLP180 T02330189
                 =
2018-07-20 22:53 METAR KOXB 210253Z AUTO 13011KT 10SM CLR 23/18 A3008 RMK AO2 SLP186 T02330178
                 58003 =
2018-07-20 21:53 METAR KOXB 210153Z AUTO 13009KT 10SM CLR 23/18 A3009 RMK AO2 SLP188 T02330178 =
2018-07-20 20:53 METAR KOXB 210053Z AUTO 13009KT 10SM CLR 23/17 A3009 RMK AO2 SLP189 T02330172 =
2018-07-20 19:53 METAR KOXB 202353Z AUTO 13010KT 10SM CLR 24/17 A3009 RMK AO2 SLP189 T02390167
                 10267 20239 55001 =
2018-07-20 18:53 METAR KOXB 202253Z AUTO 12009G15KT 10SM CLR 24/17 A3009 RMK AO2 SLP188 T02440172
                 =
2018-07-20 17:53 METAR KOXB 202153Z AUTO 12009KT 10SM CLR 26/18 A3009 RMK AO2 SLP189 T02560178 =
2018-07-20 16:53 METAR KOXB 202053Z AUTO 12010KT 10SM CLR 26/18 A3009 RMK AO2 SLP190 T02610178
                 58015 =
2018-07-20 15:53 METAR KOXB 201953Z AUTO 12011KT 10SM CLR 27/17 A3011 RMK AO2 SLP197 T02670172 =
2018-07-20 14:53 METAR KOXB 201853Z AUTO 11010KT 10SM CLR 26/17 A3013 RMK AO2 SLP202 T02610167 =
2018-07-20 13:53 METAR KOXB 201753Z AUTO 12010KT 10SM CLR 27/18 A3014 RMK AO2 SLP205 T02670178
                 10272 20233 58004 =
2018-07-20 12:53 METAR KOXB 201653Z AUTO 11009KT 10SM CLR 27/18 A3015 RMK AO2 SLP208 T02670183 =
2018-07-20 11:53 METAR KOXB 201553Z AUTO 12009KT 10SM CLR 26/18 A3015 RMK AO2 SLP210 T02610183 =
2018-07-20 10:53 METAR KOXB 201453Z AUTO 11009KT 10SM CLR 26/19 A3015 RMK AO2 SLP209 T02610189
                 51004 =
2018-07-20 10:24 METAR KOXB 201424Z AUTO 12008KT 10SM SCT031 26/19 A3015 RMK AO2 T02560189 =
2018-07-20 10:15 METAR KOXB 201415Z AUTO 11009KT 10SM BKN029 BKN049 26/19 A3015 RMK AO2 T02610189
                 =
2018-07-20 09:53 METAR KOXB 201353Z AUTO 11006KT 10SM FEW031 26/18 A3015 RMK AO2 SLP208 T02560183
                 =
2018-07-20 08:53 METAR KOXB 201253Z AUTO 11004KT 10SM CLR 25/18 A3014 RMK AO2 SLP207 T02500183 =
2018-07-20 07:53 METAR KOXB 201153Z AUTO 00000KT 10SM CLR 23/21 A3014 RMK AO2 SLP204 T02330206
                 10233 20150 51010 =
2018-07-20 06:53 METAR KOXB 201053Z AUTO 00000KT 10SM CLR 17/17 A3013 RMK AO2 SLP202 T01720167 =
2018-07-20 05:53 METAR KOXB 200953Z AUTO 00000KT 10SM CLR 16/16 A3012 RMK AO2 SLP197 T01560156 =
2018-07-20 04:53 METAR KOXB 200853Z AUTO 00000KT 10SM CLR 15/15 A3011 RMK AO2 SLP195 T01500150
                 58003 =
2018-07-20 03:53 METAR KOXB 200753Z AUTO 00000KT 10SM CLR 16/16 A3011 RMK AO2 SLP196 T01560156 =

Support USWX by starting your Amazon purchase here.